sensor_id;sensor_type;location;lat;lon;timestamp;P1;durP1;ratioP1;P2;durP2;ratioP2
84334;SDS011;74512;51.190;3.198;2024-03-07T00:00:57;49.22;;;23.98;;
84334;SDS011;74512;51.190;3.198;2024-03-07T00:03:25;46.92;;;22.60;;
84334;SDS011;74512;51.190;3.198;2024-03-07T00:05:51;31.33;;;16.40;;
84334;SDS011;74512;51.190;3.198;2024-03-07T00:08:16;46.25;;;22.30;;
84334;SDS011;74512;51.190;3.198;2024-03-07T00:10:42;45.30;;;22.35;;
84334;SDS011;74512;51.190;3.198;2024-03-07T00:13:09;46.20;;;21.95;;
84334;SDS011;74512;51.190;3.198;2024-03-07T00:15:35;47.50;;;22.95;;
84334;SDS011;74512;51.190;3.198;2024-03-07T00:18:01;48.05;;;22.38;;
84334;SDS011;74512;51.190;3.198;2024-03-07T00:20:27;47.05;;;23.02;;
84334;SDS011;74512;51.190;3.198;2024-03-07T00:22:53;45.88;;;22.15;;
84334;SDS011;74512;51.190;3.198;2024-03-07T00:25:19;46.47;;;23.38;;
84334;SDS011;74512;51.190;3.198;2024-03-07T00:27:45;45.22;;;21.73;;
84334;SDS011;74512;51.190;3.198;2024-03-07T00:30:10;45.10;;;21.98;;
84334;SDS011;74512;51.190;3.198;2024-03-07T00:32:38;46.83;;;21.08;;
84334;SDS011;74512;51.190;3.198;2024-03-07T00:35:06;40.40;;;21.35;;
84334;SDS011;74512;51.190;3.198;2024-03-07T00:37:33;44.83;;;21.77;;
84334;SDS011;74512;51.190;3.198;2024-03-07T00:39:59;47.60;;;23.00;;
84334;SDS011;74512;51.190;3.198;2024-03-07T00:42:25;47.00;;;23.55;;
84334;SDS011;74512;51.190;3.198;2024-03-07T00:44:52;53.63;;;25.08;;
84334;SDS011;74512;51.190;3.198;2024-03-07T00:47:18;55.53;;;25.40;;
84334;SDS011;74512;51.190;3.198;2024-03-07T00:49:44;56.80;;;26.05;;
84334;SDS011;74512;51.190;3.198;2024-03-07T00:52:11;56.88;;;26.98;;
84334;SDS011;74512;51.190;3.198;2024-03-07T00:54:40;54.95;;;25.55;;
84334;SDS011;74512;51.190;3.198;2024-03-07T00:57:07;55.85;;;25.55;;
84334;SDS011;74512;51.190;3.198;2024-03-07T00:59:33;56.75;;;24.95;;
84334;SDS011;74512;51.190;3.198;2024-03-07T01:01:59;56.47;;;26.30;;
84334;SDS011;74512;51.190;3.198;2024-03-07T01:04:25;58.05;;;24.38;;
84334;SDS011;74512;51.190;3.198;2024-03-07T01:06:59;29.75;;;16.67;;
84334;SDS011;74512;51.190;3.198;2024-03-07T01:09:26;49.88;;;23.45;;
84334;SDS011;74512;51.190;3.198;2024-03-07T01:11:53;41.63;;;20.30;;
84334;SDS011;74512;51.190;3.198;2024-03-07T01:14:20;50.42;;;23.75;;
84334;SDS011;74512;51.190;3.198;2024-03-07T01:16:46;51.08;;;24.85;;
84334;SDS011;74512;51.190;3.198;2024-03-07T01:19:12;51.72;;;24.73;;
84334;SDS011;74512;51.190;3.198;2024-03-07T01:21:38;33.83;;;17.17;;
84334;SDS011;74512;51.190;3.198;2024-03-07T01:24:04;51.10;;;24.48;;
84334;SDS011;74512;51.190;3.198;2024-03-07T01:26:30;49.67;;;24.17;;
84334;SDS011;74512;51.190;3.198;2024-03-07T01:28:58;45.83;;;22.45;;
84334;SDS011;74512;51.190;3.198;2024-03-07T01:31:24;43.90;;;21.90;;
84334;SDS011;74512;51.190;3.198;2024-03-07T01:33:50;43.22;;;22.75;;
84334;SDS011;74512;51.190;3.198;2024-03-07T01:36:16;39.95;;;22.33;;
84334;SDS011;74512;51.190;3.198;2024-03-07T01:38:42;44.35;;;22.42;;
84334;SDS011;74512;51.190;3.198;2024-03-07T01:41:08;47.22;;;24.83;;
84334;SDS011;74512;51.190;3.198;2024-03-07T01:43:33;49.35;;;23.88;;
84334;SDS011;74512;51.190;3.198;2024-03-07T01:45:59;44.72;;;23.13;;
84334;SDS011;74512;51.190;3.198;2024-03-07T01:48:26;45.47;;;22.98;;
84334;SDS011;74512;51.190;3.198;2024-03-07T01:50:57;46.88;;;24.25;;
84334;SDS011;74512;51.190;3.198;2024-03-07T01:53:24;49.65;;;24.38;;
84334;SDS011;74512;51.190;3.198;2024-03-07T01:55:52;47.00;;;24.13;;
84334;SDS011;74512;51.190;3.198;2024-03-07T01:58:21;46.83;;;23.38;;
84334;SDS011;74512;51.190;3.198;2024-03-07T02:00:47;44.00;;;22.80;;
84334;SDS011;74512;51.190;3.198;2024-03-07T02:03:16;46.10;;;25.17;;
84334;SDS011;74512;51.190;3.198;2024-03-07T02:05:42;48.13;;;24.27;;
84334;SDS011;74512;51.190;3.198;2024-03-07T02:08:08;53.33;;;25.17;;
84334;SDS011;74512;51.190;3.198;2024-03-07T02:10:33;49.53;;;25.10;;
84334;SDS011;74512;51.190;3.198;2024-03-07T02:12:59;41.53;;;22.77;;
84334;SDS011;74512;51.190;3.198;2024-03-07T02:15:26;52.00;;;26.02;;
84334;SDS011;74512;51.190;3.198;2024-03-07T02:17:52;48.30;;;24.38;;
84334;SDS011;74512;51.190;3.198;2024-03-07T02:20:18;48.47;;;25.88;;
84334;SDS011;74512;51.190;3.198;2024-03-07T02:22:44;42.05;;;21.10;;
84334;SDS011;74512;51.190;3.198;2024-03-07T02:25:10;53.03;;;27.13;;
84334;SDS011;74512;51.190;3.198;2024-03-07T02:27:36;53.42;;;26.75;;
84334;SDS011;74512;51.190;3.198;2024-03-07T02:30:02;54.53;;;26.33;;
84334;SDS011;74512;51.190;3.198;2024-03-07T02:32:29;51.80;;;26.25;;
84334;SDS011;74512;51.190;3.198;2024-03-07T02:34:54;55.10;;;27.48;;
84334;SDS011;74512;51.190;3.198;2024-03-07T02:37:20;53.67;;;27.55;;
84334;SDS011;74512;51.190;3.198;2024-03-07T02:39:46;54.47;;;27.38;;
84334;SDS011;74512;51.190;3.198;2024-03-07T02:42:12;51.88;;;27.58;;
84334;SDS011;74512;51.190;3.198;2024-03-07T02:44:37;42.35;;;21.50;;
84334;SDS011;74512;51.190;3.198;2024-03-07T02:47:04;54.53;;;27.55;;
84334;SDS011;74512;51.190;3.198;2024-03-07T02:49:30;49.15;;;25.17;;
84334;SDS011;74512;51.190;3.198;2024-03-07T02:51:56;55.50;;;27.52;;
84334;SDS011;74512;51.190;3.198;2024-03-07T02:54:21;52.85;;;26.83;;
84334;SDS011;74512;51.190;3.198;2024-03-07T02:56:47;52.67;;;26.92;;
84334;SDS011;74512;51.190;3.198;2024-03-07T02:59:13;53.53;;;27.75;;
84334;SDS011;74512;51.190;3.198;2024-03-07T03:01:39;56.95;;;28.48;;
84334;SDS011;74512;51.190;3.198;2024-03-07T03:04:04;45.75;;;24.25;;
84334;SDS011;74512;51.190;3.198;2024-03-07T03:06:30;51.97;;;26.95;;
84334;SDS011;74512;51.190;3.198;2024-03-07T03:08:56;50.58;;;25.13;;
84334;SDS011;74512;51.190;3.198;2024-03-07T03:11:23;59.45;;;27.73;;
84334;SDS011;74512;51.190;3.198;2024-03-07T03:13:50;58.95;;;28.77;;
84334;SDS011;74512;51.190;3.198;2024-03-07T03:16:16;63.83;;;28.45;;
84334;SDS011;74512;51.190;3.198;2024-03-07T03:18:42;54.22;;;27.20;;
84334;SDS011;74512;51.190;3.198;2024-03-07T03:21:08;55.40;;;26.15;;
84334;SDS011;74512;51.190;3.198;2024-03-07T03:23:34;53.55;;;28.27;;
84334;SDS011;74512;51.190;3.198;2024-03-07T03:26:00;63.05;;;29.23;;
84334;SDS011;74512;51.190;3.198;2024-03-07T03:28:26;60.88;;;29.83;;
84334;SDS011;74512;51.190;3.198;2024-03-07T03:30:52;59.65;;;30.63;;
84334;SDS011;74512;51.190;3.198;2024-03-07T03:33:18;49.08;;;23.50;;
84334;SDS011;74512;51.190;3.198;2024-03-07T03:35:45;66.85;;;30.95;;
84334;SDS011;74512;51.190;3.198;2024-03-07T03:38:11;65.10;;;30.30;;
84334;SDS011;74512;51.190;3.198;2024-03-07T03:40:37;41.25;;;20.77;;
84334;SDS011;74512;51.190;3.198;2024-03-07T03:43:03;63.83;;;29.90;;
84334;SDS011;74512;51.190;3.198;2024-03-07T03:45:29;68.70;;;30.42;;
84334;SDS011;74512;51.190;3.198;2024-03-07T03:47:57;70.03;;;33.70;;
84334;SDS011;74512;51.190;3.198;2024-03-07T03:50:22;72.88;;;34.30;;
84334;SDS011;74512;51.190;3.198;2024-03-07T03:52:48;68.07;;;32.15;;
84334;SDS011;74512;51.190;3.198;2024-03-07T03:55:14;50.80;;;25.20;;
84334;SDS011;74512;51.190;3.198;2024-03-07T03:57:41;60.17;;;28.08;;
84334;SDS011;74512;51.190;3.198;2024-03-07T04:00:09;70.85;;;32.92;;
84334;SDS011;74512;51.190;3.198;2024-03-07T04:02:39;55.57;;;28.03;;
84334;SDS011;74512;51.190;3.198;2024-03-07T04:05:14;67.72;;;31.52;;
84334;SDS011;74512;51.190;3.198;2024-03-07T04:07:41;63.08;;;29.45;;
84334;SDS011;74512;51.190;3.198;2024-03-07T04:10:07;68.72;;;33.33;;
84334;SDS011;74512;51.190;3.198;2024-03-07T04:12:34;69.45;;;30.80;;
84334;SDS011;74512;51.190;3.198;2024-03-07T04:15:02;67.20;;;31.88;;
84334;SDS011;74512;51.190;3.198;2024-03-07T04:17:32;68.35;;;31.73;;
84334;SDS011;74512;51.190;3.198;2024-03-07T04:19:59;55.83;;;27.15;;
84334;SDS011;74512;51.190;3.198;2024-03-07T04:22:25;71.55;;;32.33;;
84334;SDS011;74512;51.190;3.198;2024-03-07T04:24:51;57.75;;;26.70;;
84334;SDS011;74512;51.190;3.198;2024-03-07T04:27:20;52.42;;;25.52;;
84334;SDS011;74512;51.190;3.198;2024-03-07T04:29:47;46.30;;;22.58;;
84334;SDS011;74512;51.190;3.198;2024-03-07T04:32:13;47.80;;;22.73;;
84334;SDS011;74512;51.190;3.198;2024-03-07T04:34:39;67.25;;;32.13;;
84334;SDS011;74512;51.190;3.198;2024-03-07T04:37:04;42.85;;;21.60;;
84334;SDS011;74512;51.190;3.198;2024-03-07T04:39:30;42.80;;;21.00;;
84334;SDS011;74512;51.190;3.198;2024-03-07T04:42:02;45.78;;;23.63;;
84334;SDS011;74512;51.190;3.198;2024-03-07T04:44:28;64.75;;;31.10;;
84334;SDS011;74512;51.190;3.198;2024-03-07T04:46:54;68.20;;;30.60;;
84334;SDS011;74512;51.190;3.198;2024-03-07T04:49:22;70.18;;;32.67;;
84334;SDS011;74512;51.190;3.198;2024-03-07T04:51:52;69.80;;;30.33;;
84334;SDS011;74512;51.190;3.198;2024-03-07T04:54:19;53.50;;;24.48;;
84334;SDS011;74512;51.190;3.198;2024-03-07T04:56:45;44.42;;;21.35;;
84334;SDS011;74512;51.190;3.198;2024-03-07T04:59:12;55.30;;;26.27;;
84334;SDS011;74512;51.190;3.198;2024-03-07T05:01:41;53.30;;;24.70;;
84334;SDS011;74512;51.190;3.198;2024-03-07T05:04:07;65.93;;;30.35;;
84334;SDS011;74512;51.190;3.198;2024-03-07T05:06:33;65.03;;;28.90;;
84334;SDS011;74512;51.190;3.198;2024-03-07T05:09:02;50.13;;;23.65;;
84334;SDS011;74512;51.190;3.198;2024-03-07T05:11:30;63.67;;;28.43;;
84334;SDS011;74512;51.190;3.198;2024-03-07T05:13:56;69.05;;;32.25;;
84334;SDS011;74512;51.190;3.198;2024-03-07T05:16:29;73.53;;;33.35;;
84334;SDS011;74512;51.190;3.198;2024-03-07T05:18:55;50.35;;;23.15;;
84334;SDS011;74512;51.190;3.198;2024-03-07T05:21:27;61.83;;;28.52;;
84334;SDS011;74512;51.190;3.198;2024-03-07T05:23:59;72.80;;;31.80;;
84334;SDS011;74512;51.190;3.198;2024-03-07T05:26:28;65.13;;;29.65;;
84334;SDS011;74512;51.190;3.198;2024-03-07T05:29:02;72.38;;;31.98;;
84334;SDS011;74512;51.190;3.198;2024-03-07T05:31:31;68.72;;;31.42;;
84334;SDS011;74512;51.190;3.198;2024-03-07T05:34:00;71.13;;;31.40;;
84334;SDS011;74512;51.190;3.198;2024-03-07T05:36:29;60.05;;;27.33;;
84334;SDS011;74512;51.190;3.198;2024-03-07T05:38:58;70.55;;;31.35;;
84334;SDS011;74512;51.190;3.198;2024-03-07T05:41:33;71.88;;;32.88;;
84334;SDS011;74512;51.190;3.198;2024-03-07T05:43:59;59.65;;;26.95;;
84334;SDS011;74512;51.190;3.198;2024-03-07T05:46:25;72.30;;;34.28;;
84334;SDS011;74512;51.190;3.198;2024-03-07T05:48:51;72.32;;;33.75;;
84334;SDS011;74512;51.190;3.198;2024-03-07T05:51:21;76.35;;;32.08;;
84334;SDS011;74512;51.190;3.198;2024-03-07T05:53:48;73.07;;;32.50;;
84334;SDS011;74512;51.190;3.198;2024-03-07T05:56:13;43.50;;;19.27;;
84334;SDS011;74512;51.190;3.198;2024-03-07T05:58:39;77.65;;;33.40;;
84334;SDS011;74512;51.190;3.198;2024-03-07T06:01:05;72.88;;;32.22;;
84334;SDS011;74512;51.190;3.198;2024-03-07T06:03:33;63.35;;;29.08;;
84334;SDS011;74512;51.190;3.198;2024-03-07T06:05:59;68.10;;;31.05;;
84334;SDS011;74512;51.190;3.198;2024-03-07T06:08:25;66.50;;;30.40;;
84334;SDS011;74512;51.190;3.198;2024-03-07T06:10:50;71.20;;;30.85;;
84334;SDS011;74512;51.190;3.198;2024-03-07T06:13:16;86.82;;;36.10;;
84334;SDS011;74512;51.190;3.198;2024-03-07T06:15:46;65.05;;;29.42;;
84334;SDS011;74512;51.190;3.198;2024-03-07T06:18:12;62.17;;;28.93;;
84334;SDS011;74512;51.190;3.198;2024-03-07T06:20:40;67.70;;;30.92;;
84334;SDS011;74512;51.190;3.198;2024-03-07T06:23:06;63.08;;;27.75;;
84334;SDS011;74512;51.190;3.198;2024-03-07T06:25:32;47.25;;;21.58;;
84334;SDS011;74512;51.190;3.198;2024-03-07T06:28:03;59.05;;;25.65;;
84334;SDS011;74512;51.190;3.198;2024-03-07T06:30:39;48.50;;;21.63;;
84334;SDS011;74512;51.190;3.198;2024-03-07T06:33:08;74.15;;;32.67;;
84334;SDS011;74512;51.190;3.198;2024-03-07T06:35:34;76.82;;;34.30;;
84334;SDS011;74512;51.190;3.198;2024-03-07T06:38:04;56.67;;;26.20;;
84334;SDS011;74512;51.190;3.198;2024-03-07T06:40:34;57.60;;;26.02;;
84334;SDS011;74512;51.190;3.198;2024-03-07T06:43:00;70.38;;;32.08;;
84334;SDS011;74512;51.190;3.198;2024-03-07T06:45:28;70.32;;;30.38;;
84334;SDS011;74512;51.190;3.198;2024-03-07T06:47:57;38.58;;;17.20;;
84334;SDS011;74512;51.190;3.198;2024-03-07T06:50:23;79.80;;;35.42;;
84334;SDS011;74512;51.190;3.198;2024-03-07T06:52:49;44.80;;;19.25;;
84334;SDS011;74512;51.190;3.198;2024-03-07T06:55:18;82.93;;;39.53;;
84334;SDS011;74512;51.190;3.198;2024-03-07T06:57:47;67.88;;;30.25;;
84334;SDS011;74512;51.190;3.198;2024-03-07T07:00:13;75.07;;;32.13;;
84334;SDS011;74512;51.190;3.198;2024-03-07T07:02:45;80.55;;;34.75;;
84334;SDS011;74512;51.190;3.198;2024-03-07T07:05:11;84.13;;;35.28;;
84334;SDS011;74512;51.190;3.198;2024-03-07T07:07:49;74.78;;;32.67;;
84334;SDS011;74512;51.190;3.198;2024-03-07T07:10:18;55.65;;;22.52;;
84334;SDS011;74512;51.190;3.198;2024-03-07T07:12:47;75.30;;;31.33;;
84334;SDS011;74512;51.190;3.198;2024-03-07T07:15:15;64.72;;;27.77;;
84334;SDS011;74512;51.190;3.198;2024-03-07T07:17:42;79.90;;;34.08;;
84334;SDS011;74512;51.190;3.198;2024-03-07T07:20:13;75.05;;;32.45;;
84334;SDS011;74512;51.190;3.198;2024-03-07T07:22:40;66.85;;;28.33;;
84334;SDS011;74512;51.190;3.198;2024-03-07T07:25:06;79.32;;;33.40;;
84334;SDS011;74512;51.190;3.198;2024-03-07T07:27:43;63.55;;;27.40;;
84334;SDS011;74512;51.190;3.198;2024-03-07T07:30:10;82.88;;;35.75;;
84334;SDS011;74512;51.190;3.198;2024-03-07T07:32:37;76.45;;;33.47;;
84334;SDS011;74512;51.190;3.198;2024-03-07T07:35:04;80.63;;;33.47;;
84334;SDS011;74512;51.190;3.198;2024-03-07T07:37:46;87.20;;;38.38;;
84334;SDS011;74512;51.190;3.198;2024-03-07T07:40:14;74.15;;;33.47;;
84334;SDS011;74512;51.190;3.198;2024-03-07T07:42:43;56.42;;;23.38;;
84334;SDS011;74512;51.190;3.198;2024-03-07T07:45:13;84.80;;;34.95;;
84334;SDS011;74512;51.190;3.198;2024-03-07T07:47:40;77.45;;;33.92;;
84334;SDS011;74512;51.190;3.198;2024-03-07T07:50:10;89.88;;;39.97;;
84334;SDS011;74512;51.190;3.198;2024-03-07T07:52:50;82.93;;;33.80;;
84334;SDS011;74512;51.190;3.198;2024-03-07T07:55:18;90.47;;;38.67;;
84334;SDS011;74512;51.190;3.198;2024-03-07T07:57:58;43.83;;;19.00;;
84334;SDS011;74512;51.190;3.198;2024-03-07T08:00:25;67.97;;;28.50;;
84334;SDS011;74512;51.190;3.198;2024-03-07T08:05:25;89.25;;;37.47;;
84334;SDS011;74512;51.190;3.198;2024-03-07T08:07:53;100.57;;;40.47;;
84334;SDS011;74512;51.190;3.198;2024-03-07T08:10:20;104.20;;;40.67;;
84334;SDS011;74512;51.190;3.198;2024-03-07T08:12:49;60.28;;;25.77;;
84334;SDS011;74512;51.190;3.198;2024-03-07T08:15:15;83.25;;;34.20;;
84334;SDS011;74512;51.190;3.198;2024-03-07T08:17:42;81.55;;;32.80;;
84334;SDS011;74512;51.190;3.198;2024-03-07T08:20:12;48.88;;;21.13;;
84334;SDS011;74512;51.190;3.198;2024-03-07T08:22:39;93.75;;;39.47;;
84334;SDS011;74512;51.190;3.198;2024-03-07T08:25:07;78.82;;;31.85;;
84334;SDS011;74512;51.190;3.198;2024-03-07T08:27:34;50.72;;;23.02;;
84334;SDS011;74512;51.190;3.198;2024-03-07T08:30:01;96.20;;;41.03;;
84334;SDS011;74512;51.190;3.198;2024-03-07T08:32:28;96.97;;;42.75;;
84334;SDS011;74512;51.190;3.198;2024-03-07T08:34:54;45.40;;;19.10;;
84334;SDS011;74512;51.190;3.198;2024-03-07T08:37:19;97.60;;;43.30;;
84334;SDS011;74512;51.190;3.198;2024-03-07T08:39:46;60.20;;;27.48;;
84334;SDS011;74512;51.190;3.198;2024-03-07T08:42:12;49.17;;;21.48;;
84334;SDS011;74512;51.190;3.198;2024-03-07T08:44:37;71.53;;;30.08;;
84334;SDS011;74512;51.190;3.198;2024-03-07T08:47:03;97.32;;;40.53;;
84334;SDS011;74512;51.190;3.198;2024-03-07T08:49:29;130.10;;;53.25;;
84334;SDS011;74512;51.190;3.198;2024-03-07T08:51:54;121.22;;;45.40;;
84334;SDS011;74512;51.190;3.198;2024-03-07T08:54:20;79.63;;;31.92;;
84334;SDS011;74512;51.190;3.198;2024-03-07T08:56:45;104.15;;;43.08;;
84334;SDS011;74512;51.190;3.198;2024-03-07T08:59:11;62.20;;;28.63;;
84334;SDS011;74512;51.190;3.198;2024-03-07T09:01:41;129.20;;;49.75;;
84334;SDS011;74512;51.190;3.198;2024-03-07T09:04:08;123.00;;;47.63;;
84334;SDS011;74512;51.190;3.198;2024-03-07T09:06:34;98.20;;;38.75;;
84334;SDS011;74512;51.190;3.198;2024-03-07T09:09:00;105.10;;;43.38;;
84334;SDS011;74512;51.190;3.198;2024-03-07T09:11:26;86.53;;;35.08;;
84334;SDS011;74512;51.190;3.198;2024-03-07T09:13:51;99.75;;;41.75;;
84334;SDS011;74512;51.190;3.198;2024-03-07T09:16:17;76.85;;;31.20;;
84334;SDS011;74512;51.190;3.198;2024-03-07T09:18:43;104.50;;;41.30;;
84334;SDS011;74512;51.190;3.198;2024-03-07T09:21:11;113.25;;;42.45;;
84334;SDS011;74512;51.190;3.198;2024-03-07T09:23:36;64.50;;;25.30;;
84334;SDS011;74512;51.190;3.198;2024-03-07T09:26:02;96.90;;;38.60;;
84334;SDS011;74512;51.190;3.198;2024-03-07T09:28:31;70.85;;;31.35;;
84334;SDS011;74512;51.190;3.198;2024-03-07T09:30:56;84.03;;;38.08;;
84334;SDS011;74512;51.190;3.198;2024-03-07T09:33:22;85.95;;;36.92;;
84334;SDS011;74512;51.190;3.198;2024-03-07T09:35:48;97.25;;;43.35;;
84334;SDS011;74512;51.190;3.198;2024-03-07T09:38:13;58.72;;;25.20;;
84334;SDS011;74512;51.190;3.198;2024-03-07T09:40:39;54.55;;;24.73;;
84334;SDS011;74512;51.190;3.198;2024-03-07T09:43:06;100.07;;;39.47;;
84334;SDS011;74512;51.190;3.198;2024-03-07T09:45:35;57.67;;;25.15;;
84334;SDS011;74512;51.190;3.198;2024-03-07T09:48:03;95.82;;;38.70;;
84334;SDS011;74512;51.190;3.198;2024-03-07T09:50:30;72.25;;;30.58;;
84334;SDS011;74512;51.190;3.198;2024-03-07T09:52:56;81.35;;;34.50;;
84334;SDS011;74512;51.190;3.198;2024-03-07T09:55:25;73.05;;;32.47;;
84334;SDS011;74512;51.190;3.198;2024-03-07T09:57:50;55.65;;;25.25;;
84334;SDS011;74512;51.190;3.198;2024-03-07T10:00:18;47.80;;;18.42;;
84334;SDS011;74512;51.190;3.198;2024-03-07T10:02:56;62.35;;;27.65;;
84334;SDS011;74512;51.190;3.198;2024-03-07T10:05:31;75.57;;;32.08;;
84334;SDS011;74512;51.190;3.198;2024-03-07T10:07:57;77.07;;;32.50;;
84334;SDS011;74512;51.190;3.198;2024-03-07T10:10:24;93.03;;;37.30;;
84334;SDS011;74512;51.190;3.198;2024-03-07T10:12:51;61.55;;;27.77;;
84334;SDS011;74512;51.190;3.198;2024-03-07T10:15:18;56.75;;;27.35;;
84334;SDS011;74512;51.190;3.198;2024-03-07T10:17:44;50.25;;;23.20;;
84334;SDS011;74512;51.190;3.198;2024-03-07T10:20:12;81.03;;;33.72;;
84334;SDS011;74512;51.190;3.198;2024-03-07T10:22:41;64.13;;;28.55;;
84334;SDS011;74512;51.190;3.198;2024-03-07T10:25:07;57.70;;;25.02;;
84334;SDS011;74512;51.190;3.198;2024-03-07T10:27:35;40.90;;;15.65;;
84334;SDS011;74512;51.190;3.198;2024-03-07T10:30:02;59.10;;;23.83;;
84334;SDS011;74512;51.190;3.198;2024-03-07T10:32:29;75.00;;;31.73;;
84334;SDS011;74512;51.190;3.198;2024-03-07T10:34:55;83.80;;;35.47;;
84334;SDS011;74512;51.190;3.198;2024-03-07T10:37:23;58.33;;;25.90;;
84334;SDS011;74512;51.190;3.198;2024-03-07T10:39:50;71.45;;;31.65;;
84334;SDS011;74512;51.190;3.198;2024-03-07T10:42:17;68.72;;;29.58;;
84334;SDS011;74512;51.190;3.198;2024-03-07T10:44:49;59.47;;;26.35;;
84334;SDS011;74512;51.190;3.198;2024-03-07T10:47:18;70.80;;;30.42;;
84334;SDS011;74512;51.190;3.198;2024-03-07T10:52:48;62.30;;;26.35;;
84334;SDS011;74512;51.190;3.198;2024-03-07T10:55:37;71.72;;;33.58;;
84334;SDS011;74512;51.190;3.198;2024-03-07T11:00:56;70.60;;;29.67;;
84334;SDS011;74512;51.190;3.198;2024-03-07T11:03:26;59.42;;;26.00;;
84334;SDS011;74512;51.190;3.198;2024-03-07T11:06:00;43.17;;;19.20;;
84334;SDS011;74512;51.190;3.198;2024-03-07T11:08:34;63.95;;;30.20;;
84334;SDS011;74512;51.190;3.198;2024-03-07T11:11:21;39.17;;;18.13;;
84334;SDS011;74512;51.190;3.198;2024-03-07T11:13:48;74.05;;;32.22;;
84334;SDS011;74512;51.190;3.198;2024-03-07T11:16:14;58.15;;;26.40;;
84334;SDS011;74512;51.190;3.198;2024-03-07T11:18:41;70.55;;;31.33;;
84334;SDS011;74512;51.190;3.198;2024-03-07T11:21:41;62.85;;;31.83;;
84334;SDS011;74512;51.190;3.198;2024-03-07T11:24:07;53.38;;;26.83;;
84334;SDS011;74512;51.190;3.198;2024-03-07T11:26:57;46.53;;;20.67;;
84334;SDS011;74512;51.190;3.198;2024-03-07T11:32:18;28.83;;;12.68;;
84334;SDS011;74512;51.190;3.198;2024-03-07T11:34:46;50.88;;;20.50;;
84334;SDS011;74512;51.190;3.198;2024-03-07T11:40:13;58.28;;;24.67;;
84334;SDS011;74512;51.190;3.198;2024-03-07T11:42:46;49.42;;;22.80;;
84334;SDS011;74512;51.190;3.198;2024-03-07T11:45:13;44.50;;;20.58;;
84334;SDS011;74512;51.190;3.198;2024-03-07T11:47:51;37.95;;;17.15;;
84334;SDS011;74512;51.190;3.198;2024-03-07T11:50:37;41.90;;;19.67;;
84334;SDS011;74512;51.190;3.198;2024-03-07T11:53:04;49.97;;;24.73;;
84334;SDS011;74512;51.190;3.198;2024-03-07T11:55:31;36.05;;;15.57;;
84334;SDS011;74512;51.190;3.198;2024-03-07T11:58:11;50.38;;;24.30;;
84334;SDS011;74512;51.190;3.198;2024-03-07T12:00:44;50.53;;;23.65;;
84334;SDS011;74512;51.190;3.198;2024-03-07T12:03:14;46.78;;;23.77;;
84334;SDS011;74512;51.190;3.198;2024-03-07T12:05:42;44.72;;;22.70;;
84334;SDS011;74512;51.190;3.198;2024-03-07T12:08:09;37.17;;;20.35;;
84334;SDS011;74512;51.190;3.198;2024-03-07T12:10:40;46.08;;;21.23;;
84334;SDS011;74512;51.190;3.198;2024-03-07T12:13:10;25.75;;;13.23;;
84334;SDS011;74512;51.190;3.198;2024-03-07T12:15:38;48.38;;;25.30;;
84334;SDS011;74512;51.190;3.198;2024-03-07T12:18:04;49.47;;;24.42;;
84334;SDS011;74512;51.190;3.198;2024-03-07T12:20:37;50.17;;;23.00;;
84334;SDS011;74512;51.190;3.198;2024-03-07T12:23:18;50.00;;;27.63;;
84334;SDS011;74512;51.190;3.198;2024-03-07T12:26:11;47.13;;;21.80;;
84334;SDS011;74512;51.190;3.198;2024-03-07T12:28:55;49.90;;;24.00;;
84334;SDS011;74512;51.190;3.198;2024-03-07T12:31:20;51.88;;;27.40;;
84334;SDS011;74512;51.190;3.198;2024-03-07T12:33:50;47.20;;;23.13;;
84334;SDS011;74512;51.190;3.198;2024-03-07T12:36:16;53.28;;;25.00;;
84334;SDS011;74512;51.190;3.198;2024-03-07T12:38:42;41.80;;;20.08;;
84334;SDS011;74512;51.190;3.198;2024-03-07T12:41:09;47.88;;;26.40;;
84334;SDS011;74512;51.190;3.198;2024-03-07T12:43:41;44.72;;;24.73;;
84334;SDS011;74512;51.190;3.198;2024-03-07T12:46:10;49.30;;;23.60;;
84334;SDS011;74512;51.190;3.198;2024-03-07T12:48:40;46.67;;;24.67;;
84334;SDS011;74512;51.190;3.198;2024-03-07T12:51:06;43.97;;;22.25;;
84334;SDS011;74512;51.190;3.198;2024-03-07T12:53:32;43.40;;;23.02;;
84334;SDS011;74512;51.190;3.198;2024-03-07T12:56:00;46.95;;;23.48;;
84334;SDS011;74512;51.190;3.198;2024-03-07T12:58:26;45.22;;;22.08;;
84334;SDS011;74512;51.190;3.198;2024-03-07T13:00:54;42.58;;;21.60;;
84334;SDS011;74512;51.190;3.198;2024-03-07T13:03:23;37.60;;;20.50;;
84334;SDS011;74512;51.190;3.198;2024-03-07T13:05:55;46.78;;;21.75;;
84334;SDS011;74512;51.190;3.198;2024-03-07T13:08:24;37.88;;;22.55;;
84334;SDS011;74512;51.190;3.198;2024-03-07T13:10:51;34.05;;;17.10;;
84334;SDS011;74512;51.190;3.198;2024-03-07T13:13:20;45.80;;;22.75;;
84334;SDS011;74512;51.190;3.198;2024-03-07T13:15:46;30.02;;;18.60;;
84334;SDS011;74512;51.190;3.198;2024-03-07T13:18:12;33.17;;;18.00;;
84334;SDS011;74512;51.190;3.198;2024-03-07T13:20:38;33.60;;;17.58;;
84334;SDS011;74512;51.190;3.198;2024-03-07T13:23:08;35.85;;;22.30;;
84334;SDS011;74512;51.190;3.198;2024-03-07T13:25:35;45.42;;;23.88;;
84334;SDS011;74512;51.190;3.198;2024-03-07T13:28:04;15.85;;;9.05;;
84334;SDS011;74512;51.190;3.198;2024-03-07T13:30:49;38.90;;;21.70;;
84334;SDS011;74512;51.190;3.198;2024-03-07T13:33:15;35.20;;;19.42;;
84334;SDS011;74512;51.190;3.198;2024-03-07T13:35:42;38.60;;;22.20;;
84334;SDS011;74512;51.190;3.198;2024-03-07T13:38:10;39.40;;;20.42;;
84334;SDS011;74512;51.190;3.198;2024-03-07T13:40:35;30.80;;;16.98;;
84334;SDS011;74512;51.190;3.198;2024-03-07T13:43:05;34.05;;;20.20;;
84334;SDS011;74512;51.190;3.198;2024-03-07T13:45:34;32.28;;;18.13;;
84334;SDS011;74512;51.190;3.198;2024-03-07T13:48:06;37.15;;;20.17;;
84334;SDS011;74512;51.190;3.198;2024-03-07T13:50:35;34.78;;;19.48;;
84334;SDS011;74512;51.190;3.198;2024-03-07T13:53:03;32.92;;;20.52;;
84334;SDS011;74512;51.190;3.198;2024-03-07T13:55:41;34.33;;;21.45;;
84334;SDS011;74512;51.190;3.198;2024-03-07T14:12:05;35.67;;;20.00;;
84334;SDS011;74512;51.190;3.198;2024-03-07T14:26:37;37.40;;;20.83;;
84334;SDS011;74512;51.190;3.198;2024-03-07T14:29:43;35.47;;;18.65;;
84334;SDS011;74512;51.190;3.198;2024-03-07T14:32:19;32.03;;;18.02;;
84334;SDS011;74512;51.190;3.198;2024-03-07T14:37:38;32.53;;;17.33;;
84334;SDS011;74512;51.190;3.198;2024-03-07T14:40:15;32.53;;;17.70;;
84334;SDS011;74512;51.190;3.198;2024-03-07T14:42:44;39.63;;;22.73;;
84334;SDS011;74512;51.190;3.198;2024-03-07T14:45:12;32.50;;;18.80;;
84334;SDS011;74512;51.190;3.198;2024-03-07T14:47:44;37.10;;;25.15;;
84334;SDS011;74512;51.190;3.198;2024-03-07T14:50:12;39.00;;;20.10;;
84334;SDS011;74512;51.190;3.198;2024-03-07T14:52:41;36.35;;;20.15;;
84334;SDS011;74512;51.190;3.198;2024-03-07T14:55:10;28.77;;;15.35;;
84334;SDS011;74512;51.190;3.198;2024-03-07T14:57:39;39.03;;;20.80;;
84334;SDS011;74512;51.190;3.198;2024-03-07T15:00:06;29.70;;;16.38;;
84334;SDS011;74512;51.190;3.198;2024-03-07T15:02:47;36.67;;;22.13;;
84334;SDS011;74512;51.190;3.198;2024-03-07T15:05:14;37.15;;;20.92;;
84334;SDS011;74512;51.190;3.198;2024-03-07T15:07:42;41.90;;;24.70;;
84334;SDS011;74512;51.190;3.198;2024-03-07T15:10:10;36.90;;;21.25;;